createdAt,value
2018-09-24T00:01:12.356Z,0.50
2018-09-24T00:03:40.626Z,0.50
2018-09-24T00:06:09.127Z,0.60
2018-09-24T00:08:37.407Z,0.30
2018-09-24T00:11:05.768Z,0.97
2018-09-24T00:13:34.028Z,0.60
2018-09-24T00:16:02.321Z,0.50
2018-09-24T00:18:30.592Z,0.50
2018-09-24T00:20:58.872Z,0.40
2018-09-24T00:23:27.138Z,0.53
2018-09-24T00:25:55.408Z,0.20
2018-09-24T00:28:23.730Z,0.77
2018-09-24T00:30:52.028Z,0.50
2018-09-24T00:33:20.332Z,0.40
2018-09-24T00:35:48.608Z,0.60
2018-09-24T00:38:16.886Z,0.43
2018-09-24T00:40:45.171Z,0.60
2018-09-24T00:43:13.480Z,0.60
2018-09-24T00:45:41.764Z,0.60
2018-09-24T00:48:10.029Z,0.67
2018-09-24T00:50:38.400Z,0.57
2018-09-24T00:53:07.089Z,0.60
2018-09-24T00:55:35.360Z,0.50
2018-09-24T00:58:03.640Z,0.70
2018-09-24T01:00:31.920Z,0.70
2018-09-24T01:03:00.188Z,0.50
2018-09-24T01:05:28.464Z,0.60
2018-09-24T01:07:56.748Z,0.67
2018-09-24T01:10:25.024Z,0.60
2018-09-24T01:12:53.282Z,0.70
2018-09-24T01:15:21.541Z,0.90
2018-09-24T01:17:49.794Z,0.90
2018-09-24T01:20:18.083Z,0.60
2018-09-24T01:22:46.340Z,1.03
2018-09-24T01:25:14.626Z,0.80
2018-09-24T01:27:42.932Z,1.07
2018-09-24T01:30:11.231Z,0.50
2018-09-24T01:32:39.484Z,0.70
2018-09-24T01:35:07.787Z,0.70
2018-09-24T01:37:36.050Z,0.80
2018-09-24T01:40:04.316Z,0.80
2018-09-24T01:42:32.608Z,0.70
2018-09-24T01:45:00.873Z,0.80
2018-09-24T01:47:29.155Z,1.07
2018-09-24T01:49:57.429Z,0.70
2018-09-24T01:52:25.748Z,0.90
2018-09-24T01:54:54.023Z,3.03
2018-09-24T01:57:22.284Z,0.80
2018-09-24T01:59:53.914Z,0.80
2018-09-24T02:02:22.158Z,1.80
2018-09-24T02:04:50.884Z,0.80
2018-09-24T02:07:19.346Z,0.87
2018-09-24T02:09:47.960Z,0.90
2018-09-24T02:12:16.216Z,0.80
2018-09-24T02:14:44.501Z,1.00
2018-09-24T02:17:20.072Z,0.90
2018-09-24T02:19:49.265Z,1.00
2018-09-24T02:22:25.841Z,1.00
2018-09-24T02:24:54.632Z,0.90
2018-09-24T02:27:22.923Z,0.80
2018-09-24T02:29:51.197Z,0.83
2018-09-24T02:32:19.500Z,0.80
2018-09-24T02:34:49.145Z,0.90
2018-09-24T02:37:18.319Z,0.87
2018-09-24T02:39:46.697Z,0.70
2018-09-24T02:42:14.964Z,0.77
2018-09-24T02:44:43.224Z,0.83
2018-09-24T02:47:11.502Z,0.80
2018-09-24T02:49:39.757Z,1.10
2018-09-24T02:52:08.013Z,1.13
2018-09-24T02:54:36.565Z,0.90
2018-09-24T02:57:04.841Z,1.00
2018-09-24T02:59:33.125Z,0.90
2018-09-24T03:02:01.416Z,4.13
2018-09-24T03:04:29.684Z,1.00
2018-09-24T03:06:57.981Z,0.80
2018-09-24T03:09:26.249Z,0.80
2018-09-24T03:11:54.548Z,0.90
2018-09-24T03:14:24.484Z,0.80
2018-09-24T03:16:53.174Z,0.77
2018-09-24T03:19:21.424Z,0.90
2018-09-24T03:21:49.704Z,1.10
2018-09-24T03:24:17.963Z,1.27
2018-09-24T03:26:46.221Z,0.97
2018-09-24T03:29:22.233Z,0.90
2018-09-24T03:31:50.540Z,1.00
2018-09-24T03:34:19.308Z,1.80
2018-09-24T03:36:48.336Z,1.17
2018-09-24T03:39:16.715Z,0.90
2018-09-24T03:41:45.337Z,2.43
2018-09-24T03:44:13.571Z,0.97
2018-09-24T03:46:42.068Z,1.10
2018-09-24T03:49:10.945Z,1.10
2018-09-24T03:51:39.356Z,1.20
2018-09-24T03:54:08.551Z,1.10
2018-09-24T03:56:36.849Z,1.10
2018-09-24T03:59:05.199Z,1.00
2018-09-24T04:01:33.457Z,1.30
2018-09-24T04:04:07.149Z,1.13
2018-09-24T04:06:40.790Z,0.80
2018-09-24T04:09:14.468Z,1.40
2018-09-24T04:11:48.424Z,1.10
2018-09-24T04:14:22.113Z,1.00
2018-09-24T04:16:55.858Z,1.07
2018-09-24T04:19:29.604Z,1.20
2018-09-24T04:22:03.244Z,1.00
2018-09-24T04:24:36.925Z,1.30
2018-09-24T04:27:10.747Z,1.03
2018-09-24T04:29:44.423Z,2.30
2018-09-24T04:32:18.181Z,1.23
2018-09-24T04:34:52.427Z,1.20
2018-09-24T04:37:25.973Z,1.20
2018-09-24T04:39:59.655Z,1.30
2018-09-24T04:42:33.399Z,0.90
2018-09-24T04:45:07.129Z,1.20
2018-09-24T04:47:40.807Z,1.17
2018-09-24T04:50:14.459Z,1.77
2018-09-24T04:52:48.115Z,1.17
2018-09-24T04:55:21.901Z,1.37
2018-09-24T04:57:55.609Z,1.17
2018-09-24T05:00:29.333Z,1.13
2018-09-24T05:03:03.089Z,1.37
2018-09-24T05:05:36.804Z,1.23
2018-09-24T05:08:10.399Z,0.93
2018-09-24T05:10:44.110Z,1.20
2018-09-24T05:13:17.825Z,1.20
2018-09-24T05:15:51.519Z,0.90
2018-09-24T05:18:25.255Z,0.90
2018-09-24T05:20:58.871Z,1.10
2018-09-24T05:23:32.525Z,1.07
2018-09-24T05:26:06.095Z,1.40
2018-09-24T05:28:39.840Z,1.30
2018-09-24T05:31:13.457Z,1.40
2018-09-24T05:33:47.095Z,1.50
2018-09-24T05:36:20.817Z,1.40
2018-09-24T05:38:54.485Z,1.80
2018-09-24T05:41:28.173Z,1.30
2018-09-24T05:44:01.784Z,1.70
2018-09-24T05:46:35.441Z,1.23
2018-09-24T05:49:09.165Z,1.20
2018-09-24T05:51:42.877Z,1.70
2018-09-24T05:54:16.575Z,1.33
2018-09-24T05:56:50.203Z,2.00
2018-09-24T05:59:23.876Z,1.70
2018-09-24T06:01:57.637Z,1.30
2018-09-24T06:04:31.723Z,1.50
2018-09-24T06:07:05.588Z,1.50
2018-09-24T06:09:39.270Z,1.43
2018-09-24T06:12:12.926Z,1.80
2018-09-24T06:14:46.531Z,1.60
2018-09-24T06:17:20.181Z,2.00
2018-09-24T06:19:53.915Z,1.93
2018-09-24T06:22:27.536Z,2.60
2018-09-24T06:25:01.291Z,1.50
2018-09-24T06:27:35.036Z,1.50
2018-09-24T06:30:08.736Z,1.50
2018-09-24T06:32:42.497Z,2.20
2018-09-24T06:35:16.129Z,1.63
2018-09-24T06:37:49.824Z,2.00
2018-09-24T06:40:23.448Z,1.47
2018-09-24T06:42:57.075Z,1.90
2018-09-24T06:45:30.713Z,1.40
2018-09-24T06:48:04.414Z,1.23
2018-09-24T06:50:38.022Z,1.97
2018-09-24T06:53:11.818Z,1.67
2018-09-24T06:55:45.372Z,1.60
2018-09-24T06:58:19.064Z,1.40
2018-09-24T07:00:52.620Z,1.60
2018-09-24T07:03:26.154Z,1.97
2018-09-24T07:05:59.886Z,1.80
2018-09-24T07:08:33.456Z,1.93
2018-09-24T07:11:07.232Z,1.80
2018-09-24T07:13:41.020Z,1.67
2018-09-24T07:16:14.716Z,1.47
2018-09-24T07:18:48.364Z,1.87
2018-09-24T07:21:21.953Z,1.77
2018-09-24T07:23:55.549Z,1.67
2018-09-24T07:26:29.321Z,1.57
2018-09-24T07:29:03.036Z,1.60
2018-09-24T07:31:36.641Z,1.60
2018-09-24T07:34:10.301Z,1.77
2018-09-24T07:36:44.052Z,1.83
2018-09-24T07:39:17.737Z,6.80
2018-09-24T07:41:51.453Z,7.97
2018-09-24T07:44:25.169Z,9.73
2018-09-24T07:46:58.870Z,5.07
2018-09-24T07:49:32.543Z,7.53
2018-09-24T07:52:06.219Z,10.70
2018-09-24T07:54:39.826Z,7.47
2018-09-24T07:57:13.441Z,14.80
2018-09-24T07:59:47.157Z,10.50
2018-09-24T08:02:20.852Z,9.90
2018-09-24T08:04:54.521Z,2.23
2018-09-24T08:07:29.198Z,11.03
2018-09-24T08:10:02.953Z,8.80
2018-09-24T08:12:36.523Z,3.77
2018-09-24T08:15:10.173Z,9.13
2018-09-24T08:17:43.867Z,3.13
2018-09-24T08:20:17.554Z,8.07
2018-09-24T08:22:51.212Z,6.57
2018-09-24T08:25:24.941Z,2.73
2018-09-24T08:27:58.628Z,2.40
2018-09-24T08:30:32.324Z,3.43
2018-09-24T08:33:06.100Z,4.77
2018-09-24T08:35:40.724Z,3.83
2018-09-24T08:38:14.402Z,5.57
2018-09-24T08:40:47.920Z,1.90
2018-09-24T08:43:21.500Z,5.43
2018-09-24T08:45:55.082Z,3.10
2018-09-24T08:48:28.788Z,1.60
2018-09-24T08:51:02.416Z,2.87
2018-09-24T08:53:36.116Z,2.00
2018-09-24T08:56:09.716Z,4.03
2018-09-24T08:58:43.396Z,2.20
2018-09-24T09:01:17.110Z,2.07
2018-09-24T09:03:51.790Z,2.10
2018-09-24T09:06:25.501Z,1.90
2018-09-24T09:08:59.053Z,3.00
2018-09-24T09:11:32.711Z,2.10
2018-09-24T09:14:06.449Z,2.17
2018-09-24T09:16:40.043Z,1.70
2018-09-24T09:19:13.624Z,1.90
2018-09-24T09:21:47.190Z,2.43
2018-09-24T09:24:20.754Z,1.93
2018-09-24T09:26:54.501Z,1.43
2018-09-24T09:29:28.321Z,1.57
2018-09-24T09:32:01.632Z,2.17
2018-09-24T09:34:35.344Z,1.20
2018-09-24T09:37:09.076Z,2.53
2018-09-24T09:39:42.805Z,2.33
2018-09-24T09:42:16.363Z,1.83
2018-09-24T09:44:50.021Z,3.57
2018-09-24T09:47:23.584Z,1.93
2018-09-24T09:49:57.288Z,3.37
2018-09-24T09:52:30.984Z,1.73
2018-09-24T09:55:04.589Z,1.60
2018-09-24T09:57:38.235Z,2.27
2018-09-24T10:00:11.989Z,1.90
2018-09-24T10:02:45.657Z,4.40
2018-09-24T10:05:19.397Z,18.27
2018-09-24T10:07:53.124Z,18.23
2018-09-24T10:10:26.820Z,9.03
2018-09-24T10:13:00.516Z,8.67
2018-09-24T10:15:34.201Z,14.10
2018-09-24T10:18:07.840Z,15.73
2018-09-24T10:20:41.633Z,6.73
2018-09-24T10:23:15.492Z,14.40
2018-09-24T10:25:49.046Z,8.93
2018-09-24T10:28:22.757Z,13.07
2018-09-24T10:30:56.520Z,14.13
2018-09-24T10:33:30.168Z,8.70
2018-09-24T10:36:03.867Z,12.87
2018-09-24T10:38:37.536Z,11.37
2018-09-24T10:41:11.858Z,11.17
2018-09-24T10:43:45.581Z,8.97
2018-09-24T10:46:19.332Z,8.17
2018-09-24T10:48:53.026Z,4.77
2018-09-24T10:51:26.625Z,5.60
2018-09-24T10:54:00.340Z,5.30
2018-09-24T10:56:33.898Z,8.17
2018-09-24T10:59:07.560Z,9.43
2018-09-24T11:01:41.291Z,5.73
2018-09-24T11:04:14.991Z,5.90
2018-09-24T11:06:48.677Z,6.43
2018-09-24T11:09:22.261Z,19.97
2018-09-24T11:11:55.995Z,21.93
2018-09-24T11:14:29.722Z,14.77
2018-09-24T11:17:03.632Z,20.33
2018-09-24T11:19:37.207Z,10.23
2018-09-24T11:22:10.962Z,12.17
2018-09-24T11:24:44.533Z,9.30
2018-09-24T11:27:18.204Z,13.53
2018-09-24T11:29:51.916Z,12.27
2018-09-24T11:32:25.592Z,6.03
2018-09-24T11:34:59.412Z,7.87
2018-09-24T11:37:33.141Z,6.60
2018-09-24T11:40:06.904Z,6.70
2018-09-24T11:42:40.658Z,3.67
2018-09-24T11:45:14.401Z,7.53
2018-09-24T11:47:47.973Z,3.47
2018-09-24T11:50:21.641Z,4.73
2018-09-24T11:52:55.321Z,2.90
2018-09-24T11:55:29.022Z,3.87
2018-09-24T11:58:02.673Z,3.37
2018-09-24T12:00:36.342Z,5.50
2018-09-24T12:03:10.139Z,4.80
2018-09-24T12:05:43.895Z,4.87
2018-09-24T12:08:17.642Z,4.27
2018-09-24T12:10:51.298Z,2.90
2018-09-24T12:13:25.044Z,2.10
2018-09-24T12:15:58.747Z,2.87
2018-09-24T12:18:32.371Z,3.10
2018-09-24T12:21:06.036Z,5.40
2018-09-24T12:23:39.707Z,2.70
2018-09-24T12:26:13.445Z,3.43
2018-09-24T12:28:47.136Z,1.57
2018-09-24T12:31:20.955Z,2.47
2018-09-24T12:33:54.673Z,3.20
2018-09-24T12:36:28.351Z,1.83
2018-09-24T12:39:02.049Z,2.47
2018-09-24T12:41:35.788Z,3.90
2018-09-24T12:44:09.401Z,2.33
2018-09-24T12:46:43.138Z,1.73
2018-09-24T12:49:16.846Z,1.47
2018-09-24T12:51:50.519Z,1.70
2018-09-24T12:54:24.171Z,2.97
2018-09-24T12:56:57.901Z,1.63
2018-09-24T12:59:31.589Z,1.70
2018-09-24T13:02:05.264Z,1.60
2018-09-24T13:04:38.958Z,1.57
2018-09-24T13:07:12.579Z,2.57
2018-09-24T13:09:46.223Z,1.30
2018-09-24T13:12:19.999Z,54.17
2018-09-24T13:14:53.657Z,48.13
2018-09-24T13:17:27.283Z,28.93
2018-09-24T13:20:01.075Z,30.23
2018-09-24T13:22:34.753Z,17.13
2018-09-24T13:25:08.367Z,12.93
2018-09-24T13:27:42.093Z,14.73
2018-09-24T13:30:15.725Z,17.13
2018-09-24T13:32:49.532Z,13.37
2018-09-24T13:35:23.201Z,11.17
2018-09-24T13:37:56.894Z,9.03
2018-09-24T13:40:30.645Z,4.47
2018-09-24T13:43:04.364Z,7.50
2018-09-24T13:45:37.995Z,7.87
2018-09-24T13:48:11.805Z,5.87
2018-09-24T13:50:45.452Z,10.43
2018-09-24T13:53:19.080Z,4.73
2018-09-24T13:55:52.793Z,4.63
2018-09-24T13:58:26.458Z,6.30
2018-09-24T14:01:00.161Z,2.40
2018-09-24T14:03:33.868Z,3.60
2018-09-24T14:06:07.631Z,5.37
2018-09-24T14:08:41.221Z,1.80
2018-09-24T14:11:14.817Z,3.53
2018-09-24T14:13:48.539Z,3.27
2018-09-24T14:16:22.235Z,4.23
2018-09-24T14:18:55.821Z,1.77
2018-09-24T14:21:29.601Z,3.30
2018-09-24T14:24:03.207Z,2.87
2018-09-24T14:26:36.930Z,1.97
2018-09-24T14:29:10.729Z,1.70
2018-09-24T14:31:44.473Z,2.40
2018-09-24T14:34:18.133Z,2.60
2018-09-24T14:36:51.877Z,1.93
2018-09-24T14:39:25.534Z,2.03
2018-09-24T14:41:59.260Z,1.57
2018-09-24T14:44:32.984Z,1.87
2018-09-24T14:47:06.720Z,2.30
2018-09-24T14:49:40.437Z,2.23
2018-09-24T14:52:14.170Z,1.63
2018-09-24T14:54:47.868Z,2.03
2018-09-24T14:57:21.562Z,2.07
2018-09-24T14:59:55.248Z,1.80
2018-09-24T15:02:28.846Z,1.40
2018-09-24T15:05:02.578Z,2.40
2018-09-24T15:07:36.128Z,1.60
2018-09-24T15:10:09.812Z,1.40
2018-09-24T15:12:43.473Z,1.70
2018-09-24T15:15:17.112Z,1.80
2018-09-24T15:17:50.792Z,1.60
2018-09-24T15:20:24.539Z,1.60
2018-09-24T15:22:58.128Z,1.50
2018-09-24T15:25:31.826Z,1.43
2018-09-24T15:28:05.500Z,1.63
2018-09-24T15:30:39.411Z,1.20
2018-09-24T15:33:13.212Z,1.60
2018-09-24T15:35:46.902Z,1.50
2018-09-24T15:38:21.161Z,1.40
2018-09-24T15:40:54.909Z,1.50
2018-09-24T15:43:28.500Z,1.30
2018-09-24T15:46:02.265Z,2.73
2018-09-24T15:48:35.887Z,1.40
2018-09-24T15:51:09.654Z,1.13
2018-09-24T15:53:43.396Z,1.70
2018-09-24T15:56:16.954Z,1.20
2018-09-24T15:58:50.704Z,1.10
2018-09-24T16:01:24.380Z,2.33
2018-09-24T16:03:58.029Z,1.23
2018-09-24T16:06:31.752Z,1.20
2018-09-24T16:09:05.478Z,1.23
2018-09-24T16:11:39.175Z,1.13
2018-09-24T16:14:12.852Z,1.67
2018-09-24T16:16:46.520Z,1.83
2018-09-24T16:19:20.184Z,1.70
2018-09-24T16:21:53.899Z,1.10
2018-09-24T16:24:27.661Z,1.13
2018-09-24T16:27:01.360Z,1.50
2018-09-24T16:29:35.048Z,1.37
2018-09-24T16:32:08.739Z,1.10
2018-09-24T16:34:42.407Z,1.33
2018-09-24T16:37:16.185Z,2.37
2018-09-24T16:39:49.844Z,1.50
2018-09-24T16:42:23.459Z,1.40
2018-09-24T16:44:57.049Z,1.57
2018-09-24T16:47:30.793Z,1.63
2018-09-24T16:50:04.552Z,1.40
2018-09-24T16:52:38.302Z,2.20
2018-09-24T16:55:11.983Z,2.40
2018-09-24T16:57:45.665Z,1.70
2018-09-24T17:00:19.400Z,1.70
2018-09-24T17:02:53.010Z,1.80
2018-09-24T17:05:26.620Z,2.03
2018-09-24T17:08:00.352Z,2.07
2018-09-24T17:10:34.089Z,2.33
2018-09-24T17:13:07.739Z,2.27
2018-09-24T17:15:41.411Z,2.40
2018-09-24T17:18:16.016Z,2.10
2018-09-24T17:20:49.747Z,4.93
2018-09-24T17:23:23.388Z,2.63
2018-09-24T17:25:56.853Z,4.80
2018-09-24T17:28:30.335Z,3.17
2018-09-24T17:31:04.079Z,6.47
2018-09-24T17:33:37.783Z,7.53
2018-09-24T17:36:11.499Z,15.70
2018-09-24T17:38:45.179Z,19.47
2018-09-24T17:41:18.881Z,15.97
2018-09-24T17:43:52.648Z,15.67
2018-09-24T17:46:26.318Z,11.80
2018-09-24T17:48:59.991Z,14.37
2018-09-24T17:51:33.751Z,7.70
2018-09-24T17:54:07.472Z,7.33
2018-09-24T17:56:41.226Z,9.77
2018-09-24T17:59:14.982Z,6.20
2018-09-24T18:01:48.669Z,7.97
2018-09-24T18:04:22.512Z,10.43
2018-09-24T18:06:56.293Z,7.37
2018-09-24T18:09:29.921Z,3.40
2018-09-24T18:12:03.657Z,4.63
2018-09-24T18:14:37.429Z,3.43
2018-09-24T18:17:11.194Z,4.47
2018-09-24T18:19:51.964Z,4.73
2018-09-24T18:22:25.569Z,3.77
2018-09-24T18:24:59.861Z,4.97
2018-09-24T18:27:33.588Z,3.37
2018-09-24T18:30:07.269Z,5.17
2018-09-24T18:32:41.064Z,8.40
2018-09-24T18:35:14.941Z,2.47
2018-09-24T18:37:48.874Z,2.60
2018-09-24T18:40:22.413Z,3.40
2018-09-24T18:42:56.744Z,4.20
2018-09-24T18:45:30.545Z,1.73
2018-09-24T18:48:04.731Z,1.90
2018-09-24T18:50:38.266Z,1.70
2018-09-24T18:53:12.504Z,3.67
2018-09-24T18:55:46.350Z,2.97
2018-09-24T18:58:20.967Z,2.50
2018-09-24T19:00:55.016Z,2.30
2018-09-24T19:03:29.708Z,2.07
2018-09-24T19:06:03.411Z,2.43
2018-09-24T19:08:37.066Z,2.27
2018-09-24T19:11:10.813Z,3.90
2018-09-24T19:13:44.519Z,3.00
2018-09-24T19:16:18.181Z,2.00
2018-09-24T19:18:52.026Z,1.90
2018-09-24T19:21:26.015Z,1.80
2018-09-24T19:23:59.737Z,1.70
2018-09-24T19:26:33.543Z,2.03
2018-09-24T19:29:07.369Z,2.00
2018-09-24T19:31:41.181Z,1.90
2018-09-24T19:34:15.955Z,1.90
2018-09-24T19:36:49.595Z,1.60
2018-09-24T19:39:24.320Z,2.00
2018-09-24T19:41:58.021Z,1.60
2018-09-24T19:44:31.829Z,1.43
2018-09-24T19:47:05.581Z,1.60
2018-09-24T19:49:39.293Z,1.40
2018-09-24T19:52:13.031Z,1.87
2018-09-24T19:54:46.859Z,1.70
2018-09-24T19:57:20.695Z,1.97
2018-09-24T19:59:54.353Z,1.20
2018-09-24T20:02:28.761Z,1.40
2018-09-24T20:05:02.550Z,1.40
2018-09-24T20:07:36.884Z,1.60
2018-09-24T20:10:10.780Z,1.40
2018-09-24T20:12:44.520Z,1.70
2018-09-24T20:15:18.346Z,1.67
2018-09-24T20:17:52.147Z,1.50
2018-09-24T20:20:25.977Z,1.30
2018-09-24T20:22:59.625Z,1.70
2018-09-24T20:25:33.397Z,1.53
2018-09-24T20:28:06.955Z,1.70
2018-09-24T20:30:40.695Z,1.53
2018-09-24T20:33:14.382Z,1.70
2018-09-24T20:35:48.175Z,1.80
2018-09-24T20:38:21.879Z,2.17
2018-09-24T20:40:55.643Z,3.80
2018-09-24T20:43:29.369Z,2.00
2018-09-24T20:46:03.012Z,1.97
2018-09-24T20:48:36.705Z,1.97
2018-09-24T20:51:10.427Z,1.77
2018-09-24T20:53:44.199Z,1.80
2018-09-24T20:56:17.918Z,1.53
2018-09-24T20:58:51.658Z,1.90
2018-09-24T21:01:25.415Z,1.83
2018-09-24T21:04:00.169Z,1.70
2018-09-24T21:06:33.902Z,2.10
2018-09-24T21:09:07.666Z,1.90
2018-09-24T21:11:41.354Z,2.00
2018-09-24T21:14:15.036Z,1.80
2018-09-24T21:16:48.727Z,1.77
2018-09-24T21:19:23.406Z,1.77
2018-09-24T21:21:57.220Z,2.00
2018-09-24T21:24:31.406Z,1.73
2018-09-24T21:27:05.114Z,1.60
2018-09-24T21:29:38.827Z,1.50
2018-09-24T21:32:12.517Z,1.53
2018-09-24T21:34:46.160Z,1.80
2018-09-24T21:37:19.933Z,1.53
2018-09-24T21:39:53.684Z,1.80
2018-09-24T21:42:27.313Z,1.47
2018-09-24T21:45:01.000Z,1.47
2018-09-24T21:47:34.608Z,1.50
2018-09-24T21:50:08.253Z,1.50
2018-09-24T21:52:42.021Z,1.67
2018-09-24T21:55:15.769Z,1.50
2018-09-24T21:57:49.473Z,1.50
2018-09-24T22:00:23.904Z,1.30
2018-09-24T22:02:57.573Z,1.60
2018-09-24T22:05:31.270Z,1.60
2018-09-24T22:08:04.899Z,1.43
2018-09-24T22:10:38.479Z,1.47
2018-09-24T22:13:12.092Z,1.10
2018-09-24T22:15:45.778Z,1.43
2018-09-24T22:18:19.732Z,1.40
2018-09-24T22:20:53.406Z,1.50
2018-09-24T22:23:27.039Z,1.60
2018-09-24T22:26:00.543Z,1.40
2018-09-24T22:28:34.267Z,1.53
2018-09-24T22:31:08.119Z,1.30
2018-09-24T22:33:41.837Z,1.50
2018-09-24T22:36:15.502Z,1.40
2018-09-24T22:38:49.241Z,1.50
2018-09-24T22:41:23.339Z,1.37
2018-09-24T22:43:56.797Z,1.73
2018-09-24T22:46:30.562Z,1.23
2018-09-24T22:49:04.193Z,1.33
2018-09-24T22:51:37.887Z,1.30
2018-09-24T22:54:11.581Z,1.40
2018-09-24T22:56:45.287Z,1.50
2018-09-24T22:59:18.980Z,1.20
2018-09-24T23:01:52.753Z,1.50
2018-09-24T23:04:26.471Z,1.50
2018-09-24T23:07:00.103Z,1.40
2018-09-24T23:09:33.763Z,1.50
2018-09-24T23:12:07.299Z,1.20
2018-09-24T23:14:40.963Z,1.53
2018-09-24T23:17:14.979Z,1.37
2018-09-24T23:19:48.552Z,1.50
2018-09-24T23:22:22.292Z,1.40
2018-09-24T23:24:56.008Z,1.40
2018-09-24T23:27:30.452Z,1.57
2018-09-24T23:30:04.059Z,1.53
2018-09-24T23:32:37.806Z,1.50
2018-09-24T23:35:11.632Z,1.40
2018-09-24T23:37:45.156Z,1.40
2018-09-24T23:40:18.904Z,1.37
2018-09-24T23:42:52.494Z,1.63
2018-09-24T23:45:26.182Z,1.30
2018-09-24T23:47:59.920Z,1.20
2018-09-24T23:50:33.614Z,1.50
2018-09-24T23:53:07.306Z,1.50
2018-09-24T23:55:40.784Z,1.30
2018-09-24T23:58:14.500Z,1.50
